sensor_id;sensor_type;location;lat;lon;timestamp;P1;durP1;ratioP1;P2;durP2;ratioP2
73512;SDS011;61754;55.008;73.348;2022-09-02T00:01:21;7.68;;;4.63;;
73512;SDS011;61754;55.008;73.348;2022-09-02T00:04:00;5.10;;;4.47;;
73512;SDS011;61754;55.008;73.348;2022-09-02T00:06:36;5.00;;;4.20;;
73512;SDS011;61754;55.008;73.348;2022-09-02T00:09:04;6.57;;;5.10;;
73512;SDS011;61754;55.008;73.348;2022-09-02T00:11:30;7.45;;;4.60;;
73512;SDS011;61754;55.008;73.348;2022-09-02T00:13:57;8.95;;;4.50;;
73512;SDS011;61754;55.008;73.348;2022-09-02T00:16:25;5.95;;;4.55;;
73512;SDS011;61754;55.008;73.348;2022-09-02T00:19:00;5.25;;;4.00;;
73512;SDS011;61754;55.008;73.348;2022-09-02T00:21:27;7.05;;;4.25;;
73512;SDS011;61754;55.008;73.348;2022-09-02T00:24:00;5.57;;;4.60;;
73512;SDS011;61754;55.008;73.348;2022-09-02T00:26:26;5.05;;;4.25;;
73512;SDS011;61754;55.008;73.348;2022-09-02T00:28:52;4.82;;;4.30;;
73512;SDS011;61754;55.008;73.348;2022-09-02T00:31:25;8.07;;;4.32;;
73512;SDS011;61754;55.008;73.348;2022-09-02T00:33:52;6.68;;;4.13;;
73512;SDS011;61754;55.008;73.348;2022-09-02T00:36:18;4.70;;;3.63;;
73512;SDS011;61754;55.008;73.348;2022-09-02T00:38:49;10.00;;;3.88;;
73512;SDS011;61754;55.008;73.348;2022-09-02T00:41:15;4.25;;;3.72;;
73512;SDS011;61754;55.008;73.348;2022-09-02T00:43:48;7.30;;;4.60;;
73512;SDS011;61754;55.008;73.348;2022-09-02T00:46:27;7.57;;;4.00;;
73512;SDS011;61754;55.008;73.348;2022-09-02T00:51:23;4.90;;;3.67;;
73512;SDS011;61754;55.008;73.348;2022-09-02T00:53:53;5.72;;;3.75;;
73512;SDS011;61754;55.008;73.348;2022-09-02T00:56:21;6.40;;;3.78;;
73512;SDS011;61754;55.008;73.348;2022-09-02T00:58:54;6.15;;;3.47;;
73512;SDS011;61754;55.008;73.348;2022-09-02T01:01:20;5.80;;;3.60;;
73512;SDS011;61754;55.008;73.348;2022-09-02T01:03:51;5.07;;;3.80;;
73512;SDS011;61754;55.008;73.348;2022-09-02T01:06:22;8.57;;;3.70;;
73512;SDS011;61754;55.008;73.348;2022-09-02T01:08:50;12.55;;;3.95;;
73512;SDS011;61754;55.008;73.348;2022-09-02T01:11:26;12.65;;;4.30;;
73512;SDS011;61754;55.008;73.348;2022-09-02T01:14:04;6.90;;;4.10;;
73512;SDS011;61754;55.008;73.348;2022-09-02T01:16:44;9.68;;;4.45;;
73512;SDS011;61754;55.008;73.348;2022-09-02T01:19:19;6.10;;;4.28;;
73512;SDS011;61754;55.008;73.348;2022-09-02T01:21:48;4.30;;;3.90;;
73512;SDS011;61754;55.008;73.348;2022-09-02T01:24:27;7.13;;;4.50;;
73512;SDS011;61754;55.008;73.348;2022-09-02T01:26:56;6.55;;;3.83;;
73512;SDS011;61754;55.008;73.348;2022-09-02T01:29:22;6.63;;;4.22;;
73512;SDS011;61754;55.008;73.348;2022-09-02T01:31:58;9.00;;;4.40;;
73512;SDS011;61754;55.008;73.348;2022-09-02T01:34:30;8.77;;;4.63;;
73512;SDS011;61754;55.008;73.348;2022-09-02T01:36:56;8.27;;;4.22;;
73512;SDS011;61754;55.008;73.348;2022-09-02T01:39:22;9.32;;;4.07;;
73512;SDS011;61754;55.008;73.348;2022-09-02T01:41:49;6.25;;;4.68;;
73512;SDS011;61754;55.008;73.348;2022-09-02T01:44:15;15.30;;;5.35;;
73512;SDS011;61754;55.008;73.348;2022-09-02T01:46:43;8.60;;;4.72;;
73512;SDS011;61754;55.008;73.348;2022-09-02T01:49:19;14.63;;;4.85;;
73512;SDS011;61754;55.008;73.348;2022-09-02T01:51:54;7.55;;;4.03;;
73512;SDS011;61754;55.008;73.348;2022-09-02T01:54:20;12.02;;;5.63;;
73512;SDS011;61754;55.008;73.348;2022-09-02T01:56:46;11.05;;;4.43;;
73512;SDS011;61754;55.008;73.348;2022-09-02T01:59:12;7.95;;;4.90;;
73512;SDS011;61754;55.008;73.348;2022-09-02T02:01:52;9.38;;;4.55;;
73512;SDS011;61754;55.008;73.348;2022-09-02T02:04:19;5.88;;;3.95;;
73512;SDS011;61754;55.008;73.348;2022-09-02T02:06:52;5.75;;;4.25;;
73512;SDS011;61754;55.008;73.348;2022-09-02T02:09:18;8.13;;;4.30;;
73512;SDS011;61754;55.008;73.348;2022-09-02T02:11:45;6.18;;;3.83;;
73512;SDS011;61754;55.008;73.348;2022-09-02T02:14:14;5.68;;;3.38;;
73512;SDS011;61754;55.008;73.348;2022-09-02T02:16:45;5.50;;;3.73;;
73512;SDS011;61754;55.008;73.348;2022-09-02T02:19:11;6.53;;;4.03;;
73512;SDS011;61754;55.008;73.348;2022-09-02T02:21:38;8.10;;;4.07;;
73512;SDS011;61754;55.008;73.348;2022-09-02T02:24:05;6.45;;;3.25;;
73512;SDS011;61754;55.008;73.348;2022-09-02T02:26:33;4.70;;;3.90;;
73512;SDS011;61754;55.008;73.348;2022-09-02T02:29:00;27.02;;;13.82;;
73512;SDS011;61754;55.008;73.348;2022-09-02T02:31:27;34.25;;;16.10;;
73512;SDS011;61754;55.008;73.348;2022-09-02T02:34:04;51.00;;;20.50;;
73512;SDS011;61754;55.008;73.348;2022-09-02T02:39:03;36.35;;;18.00;;
73512;SDS011;61754;55.008;73.348;2022-09-02T02:41:30;40.35;;;22.45;;
73512;SDS011;61754;55.008;73.348;2022-09-02T02:43:56;52.10;;;26.15;;
73512;SDS011;61754;55.008;73.348;2022-09-02T02:46:27;42.88;;;18.98;;
73512;SDS011;61754;55.008;73.348;2022-09-02T02:48:59;29.92;;;18.70;;
73512;SDS011;61754;55.008;73.348;2022-09-02T02:51:25;25.63;;;13.55;;
73512;SDS011;61754;55.008;73.348;2022-09-02T02:53:51;24.17;;;12.60;;
73512;SDS011;61754;55.008;73.348;2022-09-02T02:56:18;56.78;;;26.73;;
73512;SDS011;61754;55.008;73.348;2022-09-02T02:58:44;53.97;;;17.13;;
73512;SDS011;61754;55.008;73.348;2022-09-02T03:01:10;41.08;;;18.52;;
73512;SDS011;61754;55.008;73.348;2022-09-02T03:03:36;13.98;;;8.50;;
73512;SDS011;61754;55.008;73.348;2022-09-02T03:06:13;83.53;;;29.77;;
73512;SDS011;61754;55.008;73.348;2022-09-02T03:08:39;91.95;;;33.13;;
73512;SDS011;61754;55.008;73.348;2022-09-02T03:11:06;63.10;;;28.05;;
73512;SDS011;61754;55.008;73.348;2022-09-02T03:13:36;27.27;;;14.88;;
73512;SDS011;61754;55.008;73.348;2022-09-02T03:16:13;13.32;;;8.25;;
73512;SDS011;61754;55.008;73.348;2022-09-02T03:18:40;21.45;;;11.77;;
73512;SDS011;61754;55.008;73.348;2022-09-02T03:21:07;13.15;;;8.60;;
73512;SDS011;61754;55.008;73.348;2022-09-02T03:23:36;19.42;;;7.53;;
73512;SDS011;61754;55.008;73.348;2022-09-02T03:26:07;78.50;;;33.15;;
73512;SDS011;61754;55.008;73.348;2022-09-02T03:28:37;93.38;;;40.10;;
73512;SDS011;61754;55.008;73.348;2022-09-02T03:31:16;82.70;;;37.30;;
73512;SDS011;61754;55.008;73.348;2022-09-02T03:33:42;75.72;;;34.45;;
73512;SDS011;61754;55.008;73.348;2022-09-02T03:36:25;30.08;;;12.95;;
73512;SDS011;61754;55.008;73.348;2022-09-02T03:38:51;14.38;;;7.05;;
73512;SDS011;61754;55.008;73.348;2022-09-02T03:41:18;90.60;;;27.63;;
73512;SDS011;61754;55.008;73.348;2022-09-02T03:43:51;94.28;;;32.13;;
73512;SDS011;61754;55.008;73.348;2022-09-02T03:46:24;87.70;;;30.45;;
73512;SDS011;61754;55.008;73.348;2022-09-02T03:48:51;51.80;;;23.30;;
73512;SDS011;61754;55.008;73.348;2022-09-02T03:51:22;44.97;;;23.92;;
73512;SDS011;61754;55.008;73.348;2022-09-02T03:53:49;53.83;;;27.27;;
73512;SDS011;61754;55.008;73.348;2022-09-02T03:56:15;72.65;;;28.50;;
73512;SDS011;61754;55.008;73.348;2022-09-02T03:58:48;76.70;;;31.52;;
73512;SDS011;61754;55.008;73.348;2022-09-02T04:01:18;66.53;;;36.30;;
73512;SDS011;61754;55.008;73.348;2022-09-02T04:03:44;88.88;;;37.03;;
73512;SDS011;61754;55.008;73.348;2022-09-02T04:06:12;115.20;;;45.75;;
73512;SDS011;61754;55.008;73.348;2022-09-02T04:08:40;130.95;;;48.90;;
73512;SDS011;61754;55.008;73.348;2022-09-02T04:11:18;84.55;;;48.17;;
73512;SDS011;61754;55.008;73.348;2022-09-02T04:13:51;105.82;;;46.15;;
73512;SDS011;61754;55.008;73.348;2022-09-02T04:16:27;83.10;;;38.33;;
73512;SDS011;61754;55.008;73.348;2022-09-02T04:18:57;77.10;;;35.30;;
73512;SDS011;61754;55.008;73.348;2022-09-02T04:21:24;73.25;;;36.83;;
73512;SDS011;61754;55.008;73.348;2022-09-02T04:24:00;81.55;;;39.83;;
73512;SDS011;61754;55.008;73.348;2022-09-02T04:26:27;111.18;;;43.38;;
73512;SDS011;61754;55.008;73.348;2022-09-02T04:28:59;93.13;;;41.78;;
73512;SDS011;61754;55.008;73.348;2022-09-02T04:31:30;66.32;;;35.60;;
73512;SDS011;61754;55.008;73.348;2022-09-02T04:33:58;80.95;;;39.80;;
73512;SDS011;61754;55.008;73.348;2022-09-02T04:36:29;54.58;;;29.02;;
73512;SDS011;61754;55.008;73.348;2022-09-02T04:38:56;83.95;;;32.22;;
73512;SDS011;61754;55.008;73.348;2022-09-02T04:41:31;73.10;;;34.50;;
73512;SDS011;61754;55.008;73.348;2022-09-02T04:44:03;108.22;;;39.28;;
73512;SDS011;61754;55.008;73.348;2022-09-02T04:46:34;71.07;;;31.63;;
73512;SDS011;61754;55.008;73.348;2022-09-02T04:49:02;47.92;;;18.88;;
73512;SDS011;61754;55.008;73.348;2022-09-02T04:51:38;56.42;;;30.10;;
73512;SDS011;61754;55.008;73.348;2022-09-02T04:54:06;43.72;;;20.80;;
73512;SDS011;61754;55.008;73.348;2022-09-02T04:56:34;31.10;;;15.32;;
73512;SDS011;61754;55.008;73.348;2022-09-02T04:59:03;25.00;;;16.77;;
73512;SDS011;61754;55.008;73.348;2022-09-02T05:01:31;51.90;;;29.35;;
73512;SDS011;61754;55.008;73.348;2022-09-02T05:04:03;12.27;;;7.03;;
73512;SDS011;61754;55.008;73.348;2022-09-02T05:06:40;19.00;;;10.63;;
73512;SDS011;61754;55.008;73.348;2022-09-02T05:09:17;18.60;;;10.18;;
73512;SDS011;61754;55.008;73.348;2022-09-02T05:11:48;27.15;;;14.77;;
73512;SDS011;61754;55.008;73.348;2022-09-02T05:14:16;14.60;;;8.23;;
73512;SDS011;61754;55.008;73.348;2022-09-02T05:16:44;10.00;;;5.95;;
73512;SDS011;61754;55.008;73.348;2022-09-02T05:19:13;9.57;;;7.60;;
73512;SDS011;61754;55.008;73.348;2022-09-02T05:21:44;13.95;;;8.32;;
73512;SDS011;61754;55.008;73.348;2022-09-02T05:24:19;16.38;;;6.57;;
73512;SDS011;61754;55.008;73.348;2022-09-02T05:26:46;8.43;;;5.13;;
73512;SDS011;61754;55.008;73.348;2022-09-02T05:29:12;10.13;;;4.80;;
73512;SDS011;61754;55.008;73.348;2022-09-02T05:31:49;6.50;;;5.40;;
73512;SDS011;61754;55.008;73.348;2022-09-02T05:34:15;6.47;;;4.47;;
73512;SDS011;61754;55.008;73.348;2022-09-02T05:36:41;7.22;;;4.32;;
73512;SDS011;61754;55.008;73.348;2022-09-02T05:39:08;10.18;;;5.93;;
73512;SDS011;61754;55.008;73.348;2022-09-02T05:41:37;21.05;;;9.77;;
73512;SDS011;61754;55.008;73.348;2022-09-02T05:44:09;18.58;;;6.22;;
73512;SDS011;61754;55.008;73.348;2022-09-02T05:46:42;13.65;;;5.40;;
73512;SDS011;61754;55.008;73.348;2022-09-02T05:49:08;11.98;;;6.47;;
73512;SDS011;61754;55.008;73.348;2022-09-02T05:51:48;10.20;;;7.82;;
73512;SDS011;61754;55.008;73.348;2022-09-02T05:54:28;12.20;;;6.22;;
73512;SDS011;61754;55.008;73.348;2022-09-02T05:57:01;17.38;;;6.00;;
73512;SDS011;61754;55.008;73.348;2022-09-02T05:59:39;9.90;;;5.72;;
73512;SDS011;61754;55.008;73.348;2022-09-02T06:02:09;6.85;;;5.13;;
73512;SDS011;61754;55.008;73.348;2022-09-02T06:04:45;14.82;;;5.50;;
73512;SDS011;61754;55.008;73.348;2022-09-02T06:07:21;7.00;;;5.28;;
73512;SDS011;61754;55.008;73.348;2022-09-02T06:09:50;7.22;;;4.82;;
73512;SDS011;61754;55.008;73.348;2022-09-02T06:12:22;14.10;;;4.75;;
73512;SDS011;61754;55.008;73.348;2022-09-02T06:14:49;7.25;;;5.10;;
73512;SDS011;61754;55.008;73.348;2022-09-02T06:17:16;12.88;;;5.20;;
73512;SDS011;61754;55.008;73.348;2022-09-02T06:19:51;8.80;;;5.07;;
73512;SDS011;61754;55.008;73.348;2022-09-02T06:22:22;5.60;;;4.07;;
73512;SDS011;61754;55.008;73.348;2022-09-02T06:24:58;11.35;;;5.38;;
73512;SDS011;61754;55.008;73.348;2022-09-02T06:27:26;17.35;;;5.93;;
73512;SDS011;61754;55.008;73.348;2022-09-02T06:29:57;9.63;;;5.43;;
73512;SDS011;61754;55.008;73.348;2022-09-02T06:32:25;9.57;;;5.35;;
73512;SDS011;61754;55.008;73.348;2022-09-02T06:35:03;8.40;;;4.72;;
73512;SDS011;61754;55.008;73.348;2022-09-02T06:37:35;7.68;;;4.68;;
73512;SDS011;61754;55.008;73.348;2022-09-02T06:40:02;8.35;;;4.88;;
73512;SDS011;61754;55.008;73.348;2022-09-02T06:42:30;14.25;;;5.20;;
73512;SDS011;61754;55.008;73.348;2022-09-02T06:45:22;9.32;;;5.60;;
73512;SDS011;61754;55.008;73.348;2022-09-02T06:47:53;10.10;;;4.60;;
73512;SDS011;61754;55.008;73.348;2022-09-02T06:50:19;13.00;;;6.60;;
73512;SDS011;61754;55.008;73.348;2022-09-02T06:52:45;9.52;;;4.60;;
73512;SDS011;61754;55.008;73.348;2022-09-02T06:55:12;13.65;;;5.15;;
73512;SDS011;61754;55.008;73.348;2022-09-02T06:57:41;14.35;;;5.60;;
73512;SDS011;61754;55.008;73.348;2022-09-02T07:00:10;14.07;;;4.90;;
73512;SDS011;61754;55.008;73.348;2022-09-02T07:02:47;9.25;;;5.22;;
73512;SDS011;61754;55.008;73.348;2022-09-02T07:05:38;7.32;;;4.82;;
73512;SDS011;61754;55.008;73.348;2022-09-02T07:08:05;8.05;;;4.70;;
73512;SDS011;61754;55.008;73.348;2022-09-02T07:10:31;11.70;;;4.90;;
73512;SDS011;61754;55.008;73.348;2022-09-02T07:12:57;9.27;;;4.53;;
73512;SDS011;61754;55.008;73.348;2022-09-02T07:15:23;9.75;;;5.22;;
73512;SDS011;61754;55.008;73.348;2022-09-02T07:17:49;15.63;;;4.65;;
73512;SDS011;61754;55.008;73.348;2022-09-02T07:20:24;8.90;;;4.88;;
73512;SDS011;61754;55.008;73.348;2022-09-02T07:23:03;9.90;;;4.82;;
73512;SDS011;61754;55.008;73.348;2022-09-02T07:25:31;9.57;;;5.15;;
73512;SDS011;61754;55.008;73.348;2022-09-02T07:27:58;15.13;;;7.38;;
73512;SDS011;61754;55.008;73.348;2022-09-02T07:30:25;11.55;;;5.75;;
73512;SDS011;61754;55.008;73.348;2022-09-02T07:32:57;11.05;;;5.13;;
73512;SDS011;61754;55.008;73.348;2022-09-02T07:35:35;18.13;;;5.10;;
73512;SDS011;61754;55.008;73.348;2022-09-02T07:38:07;6.57;;;4.60;;
73512;SDS011;61754;55.008;73.348;2022-09-02T07:40:35;9.10;;;4.72;;
73512;SDS011;61754;55.008;73.348;2022-09-02T07:43:03;12.32;;;4.80;;
73512;SDS011;61754;55.008;73.348;2022-09-02T07:45:31;23.25;;;5.07;;
73512;SDS011;61754;55.008;73.348;2022-09-02T07:47:57;9.30;;;4.20;;
73512;SDS011;61754;55.008;73.348;2022-09-02T07:50:25;12.32;;;4.85;;
73512;SDS011;61754;55.008;73.348;2022-09-02T07:52:53;13.18;;;5.18;;
73512;SDS011;61754;55.008;73.348;2022-09-02T07:55:31;14.80;;;4.70;;
73512;SDS011;61754;55.008;73.348;2022-09-02T07:57:59;16.27;;;4.78;;
73512;SDS011;61754;55.008;73.348;2022-09-02T08:00:25;11.95;;;4.80;;
73512;SDS011;61754;55.008;73.348;2022-09-02T08:03:11;22.90;;;5.88;;
73512;SDS011;61754;55.008;73.348;2022-09-02T08:05:51;10.68;;;5.20;;
73512;SDS011;61754;55.008;73.348;2022-09-02T08:08:19;11.00;;;4.03;;
73512;SDS011;61754;55.008;73.348;2022-09-02T08:10:46;11.00;;;4.30;;
73512;SDS011;61754;55.008;73.348;2022-09-02T08:13:17;11.38;;;4.53;;
73512;SDS011;61754;55.008;73.348;2022-09-02T08:15:43;8.27;;;4.50;;
73512;SDS011;61754;55.008;73.348;2022-09-02T08:18:10;8.32;;;3.75;;
73512;SDS011;61754;55.008;73.348;2022-09-02T08:20:36;12.70;;;4.63;;
73512;SDS011;61754;55.008;73.348;2022-09-02T08:23:12;15.38;;;4.30;;
73512;SDS011;61754;55.008;73.348;2022-09-02T08:25:39;8.90;;;4.05;;
73512;SDS011;61754;55.008;73.348;2022-09-02T08:28:06;13.57;;;3.95;;
73512;SDS011;61754;55.008;73.348;2022-09-02T08:30:32;16.70;;;4.03;;
73512;SDS011;61754;55.008;73.348;2022-09-02T08:32:59;10.10;;;3.60;;
73512;SDS011;61754;55.008;73.348;2022-09-02T08:35:34;3.58;;;3.28;;
73512;SDS011;61754;55.008;73.348;2022-09-02T08:38:00;11.25;;;4.22;;
73512;SDS011;61754;55.008;73.348;2022-09-02T08:40:37;12.77;;;4.00;;
73512;SDS011;61754;55.008;73.348;2022-09-02T08:43:11;3.67;;;3.25;;
73512;SDS011;61754;55.008;73.348;2022-09-02T08:45:39;8.57;;;3.67;;
73512;SDS011;61754;55.008;73.348;2022-09-02T08:48:25;11.93;;;4.50;;
73512;SDS011;61754;55.008;73.348;2022-09-02T08:50:57;12.27;;;3.70;;
73512;SDS011;61754;55.008;73.348;2022-09-02T08:56:01;10.68;;;3.92;;
73512;SDS011;61754;55.008;73.348;2022-09-02T08:58:38;8.77;;;3.47;;
73512;SDS011;61754;55.008;73.348;2022-09-02T09:09:09;9.02;;;3.47;;
73512;SDS011;61754;55.008;73.348;2022-09-02T09:11:47;12.95;;;4.10;;
73512;SDS011;61754;55.008;73.348;2022-09-02T09:14:16;9.90;;;3.83;;
73512;SDS011;61754;55.008;73.348;2022-09-02T09:19:55;13.23;;;4.15;;
73512;SDS011;61754;55.008;73.348;2022-09-02T09:22:35;14.35;;;3.75;;
73512;SDS011;61754;55.008;73.348;2022-09-02T09:25:04;18.55;;;4.32;;
73512;SDS011;61754;55.008;73.348;2022-09-02T09:27:31;17.73;;;4.53;;
73512;SDS011;61754;55.008;73.348;2022-09-02T09:30:04;8.25;;;3.63;;
73512;SDS011;61754;55.008;73.348;2022-09-02T09:32:39;6.88;;;2.83;;
73512;SDS011;61754;55.008;73.348;2022-09-02T09:35:07;17.27;;;3.20;;
73512;SDS011;61754;55.008;73.348;2022-09-02T09:37:34;6.30;;;2.75;;
73512;SDS011;61754;55.008;73.348;2022-09-02T09:45:26;8.18;;;3.03;;
73512;SDS011;61754;55.008;73.348;2022-09-02T09:50:37;17.05;;;3.35;;
73512;SDS011;61754;55.008;73.348;2022-09-02T09:53:22;7.15;;;2.63;;
73512;SDS011;61754;55.008;73.348;2022-09-02T09:55:54;6.90;;;2.63;;
73512;SDS011;61754;55.008;73.348;2022-09-02T09:58:21;12.98;;;4.10;;
73512;SDS011;61754;55.008;73.348;2022-09-02T10:00:48;10.63;;;3.53;;
73512;SDS011;61754;55.008;73.348;2022-09-02T10:03:22;13.68;;;2.88;;
73512;SDS011;61754;55.008;73.348;2022-09-02T10:05:58;14.38;;;2.90;;
73512;SDS011;61754;55.008;73.348;2022-09-02T10:08:35;6.78;;;3.38;;
73512;SDS011;61754;55.008;73.348;2022-09-02T10:11:25;14.68;;;3.15;;
73512;SDS011;61754;55.008;73.348;2022-09-02T10:13:57;7.40;;;3.35;;
73512;SDS011;61754;55.008;73.348;2022-09-02T10:19:00;10.35;;;3.58;;
73512;SDS011;61754;55.008;73.348;2022-09-02T10:26:40;13.57;;;3.75;;
73512;SDS011;61754;55.008;73.348;2022-09-02T10:32:14;25.45;;;3.13;;
73512;SDS011;61754;55.008;73.348;2022-09-02T10:37:33;9.40;;;3.17;;
73512;SDS011;61754;55.008;73.348;2022-09-02T10:40:12;5.28;;;2.33;;
73512;SDS011;61754;55.008;73.348;2022-09-02T10:50:44;12.85;;;2.67;;
73512;SDS011;61754;55.008;73.348;2022-09-02T10:53:23;10.52;;;2.72;;
73512;SDS011;61754;55.008;73.348;2022-09-02T10:58:35;7.40;;;2.70;;
73512;SDS011;61754;55.008;73.348;2022-09-02T11:01:02;9.20;;;3.50;;
73512;SDS011;61754;55.008;73.348;2022-09-02T11:04:04;14.50;;;2.80;;
73512;SDS011;61754;55.008;73.348;2022-09-02T11:06:39;11.73;;;2.78;;
73512;SDS011;61754;55.008;73.348;2022-09-02T11:11:59;10.93;;;2.45;;
73512;SDS011;61754;55.008;73.348;2022-09-02T11:16:58;20.15;;;3.03;;
73512;SDS011;61754;55.008;73.348;2022-09-02T11:32:31;7.70;;;2.20;;
73512;SDS011;61754;55.008;73.348;2022-09-02T11:35:19;6.82;;;1.50;;
73512;SDS011;61754;55.008;73.348;2022-09-02T11:37:49;13.57;;;3.15;;
73512;SDS011;61754;55.008;73.348;2022-09-02T11:40:18;22.83;;;3.08;;
73512;SDS011;61754;55.008;73.348;2022-09-02T11:43:02;6.93;;;2.30;;
73512;SDS011;61754;55.008;73.348;2022-09-02T11:48:18;8.93;;;2.03;;
73512;SDS011;61754;55.008;73.348;2022-09-02T11:50:57;17.73;;;3.67;;
73512;SDS011;61754;55.008;73.348;2022-09-02T11:53:37;10.30;;;2.40;;
73512;SDS011;61754;55.008;73.348;2022-09-02T11:56:08;10.02;;;2.40;;
73512;SDS011;61754;55.008;73.348;2022-09-02T11:58:38;15.35;;;3.72;;
73512;SDS011;61754;55.008;73.348;2022-09-02T12:03:30;22.80;;;3.30;;
73512;SDS011;61754;55.008;73.348;2022-09-02T12:06:12;13.50;;;4.30;;
73512;SDS011;61754;55.008;73.348;2022-09-02T12:08:55;11.55;;;3.28;;
73512;SDS011;61754;55.008;73.348;2022-09-02T12:16:43;14.55;;;4.18;;
73512;SDS011;61754;55.008;73.348;2022-09-02T12:19:26;22.63;;;4.07;;
73512;SDS011;61754;55.008;73.348;2022-09-02T12:25:00;22.88;;;4.90;;
73512;SDS011;61754;55.008;73.348;2022-09-02T12:27:27;29.60;;;6.32;;
73512;SDS011;61754;55.008;73.348;2022-09-02T12:30:05;45.70;;;9.98;;
73512;SDS011;61754;55.008;73.348;2022-09-02T12:35:32;29.15;;;6.22;;
73512;SDS011;61754;55.008;73.348;2022-09-02T12:41:00;15.02;;;4.50;;
73512;SDS011;61754;55.008;73.348;2022-09-02T12:43:46;33.72;;;5.38;;
73512;SDS011;61754;55.008;73.348;2022-09-02T12:54:14;24.15;;;5.20;;
73512;SDS011;61754;55.008;73.348;2022-09-02T12:56:49;23.08;;;5.78;;
73512;SDS011;61754;55.008;73.348;2022-09-02T12:59:24;27.90;;;5.35;;
73512;SDS011;61754;55.008;73.348;2022-09-02T13:01:53;34.00;;;5.90;;
73512;SDS011;61754;55.008;73.348;2022-09-02T13:09:34;20.13;;;5.78;;
73512;SDS011;61754;55.008;73.348;2022-09-02T13:20:33;21.70;;;7.38;;
73512;SDS011;61754;55.008;73.348;2022-09-02T13:30:57;20.85;;;6.15;;
73512;SDS011;61754;55.008;73.348;2022-09-02T13:33:32;28.60;;;7.43;;
73512;SDS011;61754;55.008;73.348;2022-09-02T13:36:03;26.77;;;7.20;;
73512;SDS011;61754;55.008;73.348;2022-09-02T13:38:39;31.70;;;7.80;;
73512;SDS011;61754;55.008;73.348;2022-09-02T13:41:05;24.05;;;9.32;;
73512;SDS011;61754;55.008;73.348;2022-09-02T13:43:31;23.23;;;7.72;;
73512;SDS011;61754;55.008;73.348;2022-09-02T13:45:58;21.73;;;6.15;;
73512;SDS011;61754;55.008;73.348;2022-09-02T13:48:25;28.35;;;8.15;;
73512;SDS011;61754;55.008;73.348;2022-09-02T13:50:55;24.55;;;7.82;;
73512;SDS011;61754;55.008;73.348;2022-09-02T13:53:34;30.92;;;7.70;;
73512;SDS011;61754;55.008;73.348;2022-09-02T13:56:05;27.48;;;7.50;;
73512;SDS011;61754;55.008;73.348;2022-09-02T13:58:44;27.05;;;7.93;;
73512;SDS011;61754;55.008;73.348;2022-09-02T14:01:24;24.13;;;8.40;;
73512;SDS011;61754;55.008;73.348;2022-09-02T14:03:52;25.33;;;8.57;;
73512;SDS011;61754;55.008;73.348;2022-09-02T14:06:29;25.55;;;8.80;;
73512;SDS011;61754;55.008;73.348;2022-09-02T14:09:02;29.48;;;11.55;;
73512;SDS011;61754;55.008;73.348;2022-09-02T14:11:32;23.45;;;8.65;;
73512;SDS011;61754;55.008;73.348;2022-09-02T14:14:01;27.48;;;8.10;;
73512;SDS011;61754;55.008;73.348;2022-09-02T14:16:28;24.40;;;9.63;;
73512;SDS011;61754;55.008;73.348;2022-09-02T14:21:52;22.77;;;7.55;;
73512;SDS011;61754;55.008;73.348;2022-09-02T14:24:29;27.10;;;8.43;;
73512;SDS011;61754;55.008;73.348;2022-09-02T14:27:01;26.20;;;8.45;;
73512;SDS011;61754;55.008;73.348;2022-09-02T14:29:28;24.63;;;8.93;;
73512;SDS011;61754;55.008;73.348;2022-09-02T14:32:23;21.65;;;8.38;;
73512;SDS011;61754;55.008;73.348;2022-09-02T14:37:54;25.42;;;9.02;;
73512;SDS011;61754;55.008;73.348;2022-09-02T14:40:39;27.60;;;7.57;;
73512;SDS011;61754;55.008;73.348;2022-09-02T14:43:11;15.85;;;7.82;;
73512;SDS011;61754;55.008;73.348;2022-09-02T14:45:38;24.83;;;8.35;;
73512;SDS011;61754;55.008;73.348;2022-09-02T14:48:18;28.48;;;7.97;;
73512;SDS011;61754;55.008;73.348;2022-09-02T14:50:46;26.95;;;7.55;;
73512;SDS011;61754;55.008;73.348;2022-09-02T14:53:22;19.40;;;7.72;;
73512;SDS011;61754;55.008;73.348;2022-09-02T14:55:50;25.13;;;8.63;;
73512;SDS011;61754;55.008;73.348;2022-09-02T14:58:20;24.13;;;7.78;;
73512;SDS011;61754;55.008;73.348;2022-09-02T15:00:50;24.08;;;8.63;;
73512;SDS011;61754;55.008;73.348;2022-09-02T15:03:20;31.70;;;13.98;;
73512;SDS011;61754;55.008;73.348;2022-09-02T15:05:52;38.72;;;11.10;;
73512;SDS011;61754;55.008;73.348;2022-09-02T15:08:18;28.55;;;10.02;;
73512;SDS011;61754;55.008;73.348;2022-09-02T15:10:49;25.55;;;9.32;;
73512;SDS011;61754;55.008;73.348;2022-09-02T15:13:22;51.70;;;18.05;;
73512;SDS011;61754;55.008;73.348;2022-09-02T15:15:50;29.52;;;10.23;;
73512;SDS011;61754;55.008;73.348;2022-09-02T15:18:16;26.27;;;8.77;;
73512;SDS011;61754;55.008;73.348;2022-09-02T15:20:42;30.73;;;8.50;;
73512;SDS011;61754;55.008;73.348;2022-09-02T15:23:13;28.20;;;9.45;;
73512;SDS011;61754;55.008;73.348;2022-09-02T15:25:39;39.30;;;18.63;;
73512;SDS011;61754;55.008;73.348;2022-09-02T15:28:05;22.77;;;9.55;;
73512;SDS011;61754;55.008;73.348;2022-09-02T15:30:33;34.42;;;10.95;;
73512;SDS011;61754;55.008;73.348;2022-09-02T15:33:03;23.40;;;9.38;;
73512;SDS011;61754;55.008;73.348;2022-09-02T15:35:30;24.60;;;8.95;;
73512;SDS011;61754;55.008;73.348;2022-09-02T15:37:56;30.05;;;10.88;;
73512;SDS011;61754;55.008;73.348;2022-09-02T15:40:32;31.92;;;11.57;;
73512;SDS011;61754;55.008;73.348;2022-09-02T15:43:03;32.95;;;12.98;;
73512;SDS011;61754;55.008;73.348;2022-09-02T15:45:29;25.95;;;12.00;;
73512;SDS011;61754;55.008;73.348;2022-09-02T15:47:56;25.65;;;10.82;;
73512;SDS011;61754;55.008;73.348;2022-09-02T15:50:33;24.30;;;9.98;;
73512;SDS011;61754;55.008;73.348;2022-09-02T15:52:59;19.10;;;9.88;;
73512;SDS011;61754;55.008;73.348;2022-09-02T15:55:25;30.10;;;11.23;;
73512;SDS011;61754;55.008;73.348;2022-09-02T15:57:51;23.05;;;12.27;;
73512;SDS011;61754;55.008;73.348;2022-09-02T16:00:17;27.17;;;12.15;;
73512;SDS011;61754;55.008;73.348;2022-09-02T16:02:48;32.10;;;10.77;;
73512;SDS011;61754;55.008;73.348;2022-09-02T16:05:15;35.13;;;10.32;;
73512;SDS011;61754;55.008;73.348;2022-09-02T16:07:41;22.15;;;9.63;;
73512;SDS011;61754;55.008;73.348;2022-09-02T16:10:08;21.38;;;9.07;;
73512;SDS011;61754;55.008;73.348;2022-09-02T16:12:34;17.33;;;8.38;;
73512;SDS011;61754;55.008;73.348;2022-09-02T16:15:09;21.90;;;8.95;;
73512;SDS011;61754;55.008;73.348;2022-09-02T16:17:35;23.65;;;9.23;;
73512;SDS011;61754;55.008;73.348;2022-09-02T16:20:11;20.15;;;9.18;;
73512;SDS011;61754;55.008;73.348;2022-09-02T16:22:37;18.48;;;8.13;;
73512;SDS011;61754;55.008;73.348;2022-09-02T16:25:03;23.30;;;8.40;;
73512;SDS011;61754;55.008;73.348;2022-09-02T16:27:29;17.33;;;7.82;;
73512;SDS011;61754;55.008;73.348;2022-09-02T16:30:17;19.52;;;7.13;;
73512;SDS011;61754;55.008;73.348;2022-09-02T16:32:43;14.68;;;7.55;;
73512;SDS011;61754;55.008;73.348;2022-09-02T16:35:19;21.85;;;8.27;;
73512;SDS011;61754;55.008;73.348;2022-09-02T16:37:45;38.97;;;12.77;;
73512;SDS011;61754;55.008;73.348;2022-09-02T16:40:11;27.70;;;7.32;;
73512;SDS011;61754;55.008;73.348;2022-09-02T16:42:46;18.00;;;7.40;;
73512;SDS011;61754;55.008;73.348;2022-09-02T16:45:17;23.80;;;6.80;;
73512;SDS011;61754;55.008;73.348;2022-09-02T16:47:44;14.63;;;7.40;;
73512;SDS011;61754;55.008;73.348;2022-09-02T16:50:10;15.20;;;6.95;;